Time;durP1;ratioP1;P1;durP2;ratioP2;P2;SDS_P1;SDS_P2;PMS_P1;PMS_P2;Temp;Humidity;BMP_temperature;BMP_pressure;BME280_temperature;BME280_humidity;BME280_pressure;Samples;Min_cycle;Max_cycle;Signal;HPM_P1;HPM_P2
2023/03/19 00:01:08;;;;;;;10.27;5.93;;;11.30;92.60;;;;;;4964155;28;20130;-70
2023/03/19 00:03:34;;;;;;;10.43;5.72;;;11.30;92.70;;;;;;4963684;28;20054;-70
2023/03/19 00:06:01;;;;;;;9.63;5.53;;;11.40;92.70;;;;;;4964720;28;20102;-70
2023/03/19 00:08:27;;;;;;;9.18;5.18;;;11.40;92.70;;;;;;4963729;28;20036;-70
2023/03/19 00:10:53;;;;;;;9.68;5.18;;;11.40;92.40;;;;;;4964304;28;20035;-72
2023/03/19 00:13:19;;;;;;;11.02;4.95;;;11.40;92.30;;;;;;4964723;28;20293;-70
2023/03/19 00:15:46;;;;;;;8.75;5.10;;;11.40;92.20;;;;;;4964117;28;20035;-70
2023/03/19 00:18:12;;;;;;;8.70;5.13;;;11.50;92.20;;;;;;4964646;28;20019;-71
2023/03/19 00:20:38;;;;;;;8.73;4.80;;;11.50;92.20;;;;;;4964048;28;20509;-70
2023/03/19 00:23:04;;;;;;;8.60;4.50;;;11.40;92.10;;;;;;4964198;28;20039;-71
2023/03/19 00:25:30;;;;;;;9.70;4.88;;;11.40;92.10;;;;;;4963673;28;20295;-70
2023/03/19 00:27:56;;;;;;;10.15;5.25;;;11.30;92.10;;;;;;4964315;28;20023;-71
2023/03/19 00:30:23;;;;;;;10.23;4.50;;;11.20;92.30;;;;;;4964106;28;20078;-70
2023/03/19 00:32:49;;;;;;;10.57;4.95;;;11.20;92.70;;;;;;4966381;28;20042;-71
2023/03/19 00:35:15;;;;;;;11.93;5.15;;;11.10;92.60;;;;;;4948939;29;20039;-70
2023/03/19 00:37:40;;;;;;;10.95;5.30;;;11.10;92.80;;;;;;4958817;29;20138;-69
2023/03/19 00:40:07;;;;;;;7.95;4.43;;;11.10;92.80;;;;;;4962828;28;20100;-70
2023/03/19 00:42:33;;;;;;;10.32;5.13;;;11.10;92.90;;;;;;4961799;28;20039;-70
2023/03/19 00:44:59;;;;;;;9.00;4.38;;;11.20;92.90;;;;;;4963965;28;20039;-69
2023/03/19 00:47:25;;;;;;;9.05;4.82;;;11.10;92.90;;;;;;4963751;28;20114;-69
2023/03/19 00:49:51;;;;;;;9.07;4.85;;;11.10;93.10;;;;;;4963484;28;20046;-70
2023/03/19 00:52:23;;;;;;;9.70;4.57;;;11.10;93.20;;;;;;4964138;28;20356;-69
2023/03/19 00:54:49;;;;;;;9.82;5.55;;;11.10;93.20;;;;;;4963228;28;20031;-69
2023/03/19 00:57:15;;;;;;;8.60;4.53;;;11.10;93.50;;;;;;4962259;29;20066;-70
2023/03/19 00:59:40;;;;;;;9.63;4.88;;;11.00;93.30;;;;;;4946018;29;20064;-69
2023/03/19 06:03:43;;;;;;;8.18;5.07;;;10.10;99.90;;;;;;4907080;29;20067;-71
2023/03/19 06:06:09;;;;;;;9.45;4.35;;;10.10;99.90;;;;;;4911313;29;20234;-70
2023/03/19 06:08:41;;;;;;;8.23;4.40;;;10.20;99.90;;;;;;4908583;29;20024;-70
2023/03/19 06:11:20;;;;;;;7.65;4.57;;;10.20;99.90;;;;;;4924349;29;20100;-71
2023/03/19 06:13:53;;;;;;;7.57;4.40;;;10.30;99.90;;;;;;4924154;29;20024;-70
2023/03/19 06:16:22;;;;;;;7.32;4.20;;;10.40;99.90;;;;;;4924037;29;20048;-72
2023/03/19 06:18:52;;;;;;;6.90;3.80;;;10.40;99.90;;;;;;4907870;29;20357;-69
2023/03/19 06:21:18;;;;;;;6.63;3.70;;;10.50;99.90;;;;;;4923777;29;20377;-70
2023/03/19 06:23:44;;;;;;;9.88;4.72;;;10.50;99.90;;;;;;4909679;29;20036;-70
2023/03/19 06:26:13;;;;;;;7.55;4.05;;;10.60;99.90;;;;;;4907793;29;20310;-69
2023/03/19 06:28:47;;;;;;;8.55;4.40;;;10.60;99.90;;;;;;4908375;29;20056;-70
2023/03/19 06:31:13;;;;;;;6.65;4.38;;;10.70;99.90;;;;;;4907440;29;20035;-69
2023/03/19 06:33:52;;;;;;;7.10;4.10;;;10.70;99.90;;;;;;4908854;29;20230;-71
2023/03/19 06:36:18;;;;;;;6.32;3.92;;;10.60;99.90;;;;;;4923777;29;20067;-70
2023/03/19 06:38:44;;;;;;;7.13;3.85;;;10.60;99.90;;;;;;4907927;29;20032;-70
2023/03/19 06:41:10;;;;;;;7.53;4.38;;;10.60;99.90;;;;;;4908828;29;20064;-70
2023/03/19 06:43:36;;;;;;;7.53;4.10;;;10.70;99.90;;;;;;4909172;29;20097;-69
2023/03/19 06:46:03;;;;;;;6.30;4.38;;;10.70;99.90;;;;;;4908580;29;20318;-70
2023/03/19 06:48:30;;;;;;;6.43;4.22;;;10.70;99.90;;;;;;4908766;29;20024;-71
2023/03/19 06:50:55;;;;;;;6.80;3.95;;;10.70;99.90;;;;;;4908738;29;20092;-70
2023/03/19 06:53:21;;;;;;;6.68;4.00;;;10.80;99.90;;;;;;4909161;29;20059;-69
2023/03/19 06:55:47;;;;;;;7.55;4.00;;;10.80;99.90;;;;;;4907557;29;20302;-69
2023/03/19 06:58:12;;;;;;;6.93;3.58;;;10.90;99.90;;;;;;4914565;29;20048;-70
2023/03/19 07:00:38;;;;;;;6.40;4.03;;;11.00;99.90;;;;;;4913279;29;20025;-70
2023/03/19 07:03:04;;;;;;;6.57;4.03;;;11.10;99.90;;;;;;4907958;29;20048;-71
2023/03/19 07:05:29;;;;;;;7.60;3.97;;;11.20;99.90;;;;;;4923547;29;20217;-71
2023/03/19 07:07:55;;;;;;;7.68;3.85;;;11.30;99.90;;;;;;4907890;29;20036;-70
2023/03/19 07:10:21;;;;;;;6.53;3.72;;;11.40;99.90;;;;;;4908305;29;20029;-69
2023/03/19 07:12:47;;;;;;;7.55;3.92;;;11.50;99.90;;;;;;4923141;29;20038;-70
2023/03/19 07:15:13;;;;;;;5.63;3.55;;;11.50;99.90;;;;;;4908196;29;20150;-69
2023/03/19 07:17:39;;;;;;;7.63;4.00;;;11.50;99.90;;;;;;4908330;29;20060;-70
2023/03/19 07:20:05;;;;;;;7.05;3.45;;;11.50;99.90;;;;;;4907845;29;20100;-70
2023/03/19 07:22:31;;;;;;;7.22;3.80;;;11.50;99.90;;;;;;4908310;29;20028;-70
2023/03/19 07:24:57;;;;;;;6.47;3.47;;;11.60;99.90;;;;;;4907634;29;20091;-69
2023/03/19 07:27:22;;;;;;;8.85;3.63;;;11.70;99.90;;;;;;4908480;29;20042;-69
2023/03/19 07:29:49;;;;;;;6.95;4.00;;;11.70;99.90;;;;;;4908323;29;20048;-70
2023/03/19 07:32:14;;;;;;;7.10;3.50;;;11.70;99.90;;;;;;4907738;29;20072;-69
2023/03/19 07:34:40;;;;;;;5.78;3.08;;;11.90;99.90;;;;;;4908130;29;20017;-70
2023/03/19 07:37:06;;;;;;;6.15;3.42;;;12.00;99.90;;;;;;4907568;29;20048;-69
2023/03/19 07:39:32;;;;;;;6.60;3.60;;;12.00;99.90;;;;;;4922679;29;20043;-71
2023/03/19 07:41:57;;;;;;;6.47;3.83;;;12.20;99.90;;;;;;4907243;29;20031;-70
2023/03/19 07:44:23;;;;;;;6.82;3.53;;;12.30;99.90;;;;;;4907747;29;20080;-71
2023/03/19 07:46:49;;;;;;;8.00;3.60;;;12.40;99.90;;;;;;4907802;29;20038;-74
2023/03/19 07:49:15;;;;;;;6.95;3.45;;;12.50;99.90;;;;;;4922185;29;20068;-71
2023/03/19 07:51:40;;;;;;;7.05;3.35;;;12.50;99.90;;;;;;4922654;29;20199;-74
2023/03/19 07:54:06;;;;;;;5.85;3.22;;;12.60;99.90;;;;;;4907316;29;20027;-71
2023/03/19 07:56:32;;;;;;;5.93;3.47;;;12.70;99.90;;;;;;4907684;29;20321;-71
2023/03/19 07:58:58;;;;;;;7.93;3.58;;;12.70;99.90;;;;;;4922107;29;20318;-73
2023/03/19 08:01:25;;;;;;;6.95;3.83;;;12.80;99.90;;;;;;4907697;29;20116;-73
2023/03/19 08:03:51;;;;;;;6.47;3.47;;;12.80;99.90;;;;;;4907575;29;20238;-71
2023/03/19 08:06:16;;;;;;;6.78;4.05;;;12.70;99.90;;;;;;4907450;29;20051;-70
2023/03/19 08:08:42;;;;;;;7.28;3.92;;;12.80;99.90;;;;;;4907632;29;20040;-71
2023/03/19 08:11:08;;;;;;;5.85;3.42;;;12.80;99.90;;;;;;4906763;29;20036;-71
2023/03/19 08:13:34;;;;;;;6.68;3.78;;;12.80;99.90;;;;;;4907471;29;20310;-71
2023/03/19 08:16:00;;;;;;;6.85;3.88;;;12.80;99.90;;;;;;4907109;29;20095;-70
2023/03/19 08:18:26;;;;;;;6.53;3.70;;;12.90;99.90;;;;;;4907150;29;20032;-73
2023/03/19 08:20:51;;;;;;;5.10;3.40;;;13.00;99.90;;;;;;4907424;29;20100;-73
2023/03/19 08:23:18;;;;;;;5.90;3.58;;;13.10;99.90;;;;;;4906028;29;20332;-75
2023/03/19 08:25:44;;;;;;;8.73;3.55;;;13.20;99.90;;;;;;4907501;29;20238;-74
2023/03/19 08:28:10;;;;;;;7.78;3.58;;;13.20;99.90;;;;;;4907007;29;20099;-70
2023/03/19 08:30:37;;;;;;;7.22;3.67;;;13.30;99.90;;;;;;4906996;29;20040;-68
2023/03/19 08:33:03;;;;;;;6.47;3.25;;;13.40;99.90;;;;;;4906728;29;20025;-69
2023/03/19 08:35:29;;;;;;;6.07;3.17;;;13.60;99.90;;;;;;4907036;29;20052;-68
2023/03/19 08:37:55;;;;;;;5.80;3.40;;;13.70;99.90;;;;;;4921550;29;20028;-69
2023/03/19 08:40:22;;;;;;;8.40;3.40;;;13.90;99.90;;;;;;4906705;29;20032;-67
2023/03/19 08:42:47;;;;;;;6.50;3.42;;;13.90;99.90;;;;;;4921308;29;20039;-67
2023/03/19 08:45:16;;;;;;;5.65;3.30;;;14.00;99.90;;;;;;4906532;29;20032;-69
2023/03/19 08:47:42;;;;;;;8.05;4.07;;;14.10;99.90;;;;;;4910447;29;20266;-67
2023/03/19 08:50:11;;;;;;;7.68;3.42;;;14.20;99.90;;;;;;4914787;29;20039;-70
2023/03/19 08:52:37;;;;;;;6.93;3.95;;;14.20;99.90;;;;;;4911810;29;20016;-70
2023/03/19 08:55:03;;;;;;;5.75;3.90;;;14.20;99.90;;;;;;4905956;29;20278;-69
2023/03/19 08:57:32;;;;;;;6.82;4.05;;;14.20;99.90;;;;;;4908303;29;20215;-71
2023/03/19 08:59:57;;;;;;;6.88;3.95;;;14.20;99.90;;;;;;4905307;29;20235;-68
2023/03/19 09:02:23;;;;;;;6.95;3.40;;;14.40;99.90;;;;;;4906230;29;20108;-69
2023/03/19 09:04:49;;;;;;;5.63;3.35;;;14.50;99.90;;;;;;4906787;29;20036;-67
2023/03/19 09:07:22;;;;;;;6.78;3.45;;;14.50;99.90;;;;;;4906052;29;20104;-68
2023/03/19 09:09:48;;;;;;;7.68;3.60;;;14.50;99.90;;;;;;4906423;29;20032;-68
2023/03/19 09:12:16;;;;;;;5.65;3.20;;;14.50;99.90;;;;;;4912767;29;20043;-68
2023/03/19 09:14:42;;;;;;;6.23;3.10;;;14.60;99.90;;;;;;4922150;29;20095;-68
2023/03/19 09:17:09;;;;;;;6.55;3.22;;;14.70;99.90;;;;;;4906135;29;20040;-70
2023/03/19 09:19:35;;;;;;;7.35;3.67;;;14.80;99.90;;;;;;4906639;29;20326;-66
2023/03/19 09:22:02;;;;;;;6.00;3.88;;;14.90;99.90;;;;;;4906138;29;20056;-67
2023/03/19 09:24:28;;;;;;;7.78;3.70;;;14.90;99.90;;;;;;4906341;29;20103;-68
2023/03/19 09:26:54;;;;;;;7.82;4.10;;;14.90;99.90;;;;;;4906753;29;20040;-69
2023/03/19 09:29:20;;;;;;;7.10;4.38;;;15.10;99.90;;;;;;4905923;29;20084;-69
2023/03/19 09:31:45;;;;;;;5.50;3.75;;;15.10;99.90;;;;;;4906555;29;20256;-70
2023/03/19 09:34:12;;;;;;;7.45;4.38;;;15.30;99.90;;;;;;4907268;29;20112;-69
2023/03/19 09:36:44;;;;;;;7.05;3.65;;;15.60;99.90;;;;;;4910176;29;20211;-70
2023/03/19 09:39:13;;;;;;;7.18;3.72;;;15.90;99.90;;;;;;4909804;29;20036;-69
2023/03/19 09:42:17;;;;;;;10.38;4.85;;;16.20;99.50;;;;;;4910167;29;20084;-68
2023/03/19 09:44:45;;;;;;;7.68;3.55;;;16.30;98.70;;;;;;4892075;29;20124;-68
2023/03/19 09:47:31;;;;;;;7.78;4.25;;;16.30;97.90;;;;;;4920527;29;20040;-69
2023/03/19 09:50:05;;;;;;;5.78;3.20;;;16.10;97.70;;;;;;4910327;29;20092;-69
2023/03/19 09:52:40;;;;;;;6.40;3.58;;;15.80;98.40;;;;;;4906323;29;20023;-69
2023/03/19 09:55:18;;;;;;;6.25;2.95;;;15.70;98.30;;;;;;4909474;29;20140;-68
2023/03/19 09:57:54;;;;;;;7.72;3.10;;;15.80;98.20;;;;;;4911997;29;20034;-69
2023/03/19 10:00:32;;;;;;;4.45;2.42;;;16.00;97.90;;;;;;4913876;29;20254;-70
2023/03/19 10:03:36;;;;;;;5.70;3.00;;;16.40;97.40;;;;;;4909318;29;20115;-70
2023/03/19 10:06:05;;;;;;;4.20;2.35;;;16.80;96.30;;;;;;4911327;29;20028;-71
2023/03/19 10:08:47;;;;;;;4.95;2.53;;;17.20;95.60;;;;;;4909701;29;20132;-70
2023/03/19 10:11:35;;;;;;;6.22;2.40;;;17.30;94.30;;;;;;4909059;29;20047;-68
2023/03/19 10:14:09;;;;;;;4.93;2.37;;;17.30;94.00;;;;;;4909874;29;20278;-68
2023/03/19 10:16:38;;;;;;;4.43;2.30;;;17.30;94.10;;;;;;4909850;29;20071;-70
2023/03/19 10:19:05;;;;;;;6.13;2.47;;;17.20;93.70;;;;;;4922185;29;20020;-69
2023/03/19 10:21:47;;;;;;;4.93;2.38;;;17.30;93.60;;;;;;4909680;29;20040;-69
2023/03/19 10:24:39;;;;;;;7.57;2.70;;;17.40;93.60;;;;;;4912249;29;20036;-69
2023/03/19 10:27:14;;;;;;;6.32;2.10;;;17.40;93.00;;;;;;4916725;29;20226;-71
2023/03/19 10:29:40;;;;;;;7.22;3.83;;;17.40;93.20;;;;;;4911754;29;20040;-72
2023/03/19 10:32:36;;;;;;;4.20;1.60;;;17.60;92.60;;;;;;4920618;29;20095;-72
2023/03/19 10:35:23;;;;;;;4.57;1.48;;;17.50;89.40;;;;;;4899196;29;20040;-72
2023/03/19 10:37:49;;;;;;;3.13;1.33;;;17.60;88.30;;;;;;4909523;29;20036;-71
2023/03/19 10:40:28;;;;;;;4.53;2.17;;;17.80;87.80;;;;;;4908978;29;20111;-71
2023/03/19 10:43:15;;;;;;;5.32;1.90;;;18.00;87.80;;;;;;4914405;29;20032;-73
2023/03/19 10:45:41;;;;;;;9.30;4.60;;;18.20;87.70;;;;;;4912813;29;20053;-72
2023/03/19 10:48:14;;;;;;;5.47;2.30;;;18.50;87.80;;;;;;4908409;29;20040;-72
2023/03/19 10:50:42;;;;;;;19.05;8.82;;;18.80;85.10;;;;;;4908835;29;20111;-75
2023/03/19 10:53:14;;;;;;;3.67;1.80;;;19.00;84.40;;;;;;4889537;29;20036;-73
2023/03/19 10:56:15;;;;;;;3.75;1.73;;;19.00;83.40;;;;;;4903237;29;20040;-73
2023/03/19 10:58:54;;;;;;;2.85;1.25;;;19.50;81.40;;;;;;4908954;29;20050;-71
2023/03/19 11:01:19;;;;;;;2.00;1.30;;;19.60;78.50;;;;;;4908224;29;20043;-72
2023/03/19 11:03:56;;;;;;;3.72;1.33;;;19.70;78.30;;;;;;4908619;29;20040;-74
2023/03/19 11:06:32;;;;;;;2.95;1.17;;;19.80;75.50;;;;;;4908452;29;20033;-75
2023/03/19 11:09:07;;;;;;;2.60;0.90;;;19.80;73.50;;;;;;4908661;29;20044;-74
2023/03/19 11:11:48;;;;;;;4.95;1.30;;;20.20;73.60;;;;;;4908743;29;20289;-72
2023/03/19 11:14:20;;;;;;;5.20;1.25;;;20.60;72.60;;;;;;4907889;29;20063;-71
2023/03/19 11:17:19;;;;;;;3.85;1.10;;;21.00;72.00;;;;;;4918415;29;20249;-72
2023/03/19 11:19:56;;;;;;;4.00;1.20;;;20.80;70.40;;;;;;4906692;29;20036;-73
2023/03/19 11:22:34;;;;;;;3.60;1.33;;;20.70;69.90;;;;;;4908122;29;20051;-73
2023/03/19 11:25:26;;;;;;;5.22;1.27;;;20.90;70.00;;;;;;4902507;29;20056;-72
2023/03/19 11:28:07;;;;;;;1.90;0.80;;;20.80;69.40;;;;;;4908350;29;20084;-71
2023/03/19 11:30:44;;;;;;;2.55;1.10;;;20.90;69.30;;;;;;4907971;29;20056;-70
2023/03/19 11:33:36;;;;;;;3.05;1.35;;;21.50;69.50;;;;;;4907909;29;20133;-72
2023/03/19 11:36:13;;;;;;;3.55;1.27;;;20.70;69.80;;;;;;4908092;29;20051;-71
2023/03/19 11:39:11;;;;;;;4.30;1.63;;;20.80;69.60;;;;;;4908308;29;20039;-70
2023/03/19 11:41:47;;;;;;;;;;;21.40;68.30;;;;;;4923324;29;20107;-72
2023/03/19 11:44:34;;;;;;;2.92;1.40;;;21.80;68.80;;;;;;4907773;29;19907;-74
2023/03/19 11:47:06;;;;;;;4.22;1.02;;;22.20;67.80;;;;;;4911222;29;20080;-73
2023/03/19 11:49:47;;;;;;;2.60;1.20;;;22.90;65.80;;;;;;4916487;29;20049;-73
2023/03/19 11:52:28;;;;;;;3.63;1.10;;;22.10;65.90;;;;;;4910461;29;20332;-71
2023/03/19 11:55:15;;;;;;;2.25;0.82;;;22.20;66.70;;;;;;4907364;29;20060;-75
2023/03/19 11:57:45;;;;;;;4.13;1.13;;;22.40;65.40;;;;;;4905802;29;20315;-71
2023/03/19 12:00:32;;;;;;;4.18;1.00;;;22.00;65.70;;;;;;4922178;29;20028;-73
2023/03/19 12:03:04;;;;;;;3.85;1.15;;;21.70;66.00;;;;;;4897707;29;20057;-70
2023/03/19 12:05:46;;;;;;;3.15;1.00;;;21.50;64.50;;;;;;4905141;29;20044;-72
2023/03/19 12:08:35;;;;;;;3.72;1.10;;;21.30;65.60;;;;;;4907869;29;20104;-71
2023/03/19 12:11:17;;;;;;;2.47;0.80;;;20.70;65.90;;;;;;4889720;29;20045;-70
2023/03/19 12:13:55;;;;;;;2.72;1.00;;;21.50;65.30;;;;;;4922135;29;20084;-72
2023/03/19 12:17:03;;;;;;;4.53;1.20;;;22.90;63.20;;;;;;4907450;29;20071;-72
2023/03/19 12:19:38;;;;;;;;;;;22.60;63.00;;;;;;4902853;29;20071;-70
2023/03/19 12:22:31;;;;;;;3.05;1.10;;;22.20;63.00;;;;;;4908090;29;19907;-72
2023/03/19 12:25:14;;;;;;;4.53;1.10;;;22.20;65.00;;;;;;4922465;29;20056;-74
2023/03/19 12:28:12;;;;;;;4.00;1.00;;;22.80;63.60;;;;;;4907510;29;20036;-73
2023/03/19 12:30:40;;;;;;;;;;;22.30;62.60;;;;;;4908133;29;20051;-73
2023/03/19 12:33:47;;;;;;;3.13;1.15;;;22.00;63.90;;;;;;4907083;29;19907;-73
2023/03/19 12:36:26;;;;;;;2.70;1.20;;;22.40;63.80;;;;;;4913074;29;20051;-74
2023/03/19 12:39:05;;;;;;;3.50;1.17;;;22.20;63.10;;;;;;4907460;29;20511;-73
2023/03/19 12:41:32;;;;;;;;;;;22.10;63.10;;;;;;4908410;29;20353;-73
2023/03/19 12:44:20;;;;;;;2.50;1.08;;;21.60;64.20;;;;;;4905800;29;19908;-71
2023/03/19 12:46:57;;;;;;;3.30;1.00;;;21.20;65.00;;;;;;4908869;29;20088;-72
2023/03/19 12:49:36;;;;;;;3.63;1.13;;;20.80;66.30;;;;;;4905911;29;20218;-72
2023/03/19 12:52:12;;;;;;;3.17;1.10;;;21.70;65.90;;;;;;4907784;29;20043;-70
2023/03/19 12:54:44;;;;;;;2.38;1.10;;;21.40;64.90;;;;;;4911748;29;20040;-70
2023/03/19 12:57:36;;;;;;;4.35;1.10;;;21.50;65.10;;;;;;4913100;29;20040;-71
2023/03/19 13:00:14;;;;;;;3.15;1.02;;;20.90;66.20;;;;;;4903977;29;20037;-72
2023/03/19 13:02:54;;;;;;;3.72;1.20;;;20.40;66.80;;;;;;4918357;29;20041;-71
2023/03/19 13:05:35;;;;;;;4.93;1.50;;;19.80;68.00;;;;;;4902927;29;20060;-71
2023/03/19 13:08:16;;;;;;;3.33;1.65;;;19.30;71.20;;;;;;4906988;29;20067;-71
2023/03/19 13:10:42;;;;;;;5.00;1.17;;;18.90;73.00;;;;;;4906842;29;20051;-71
2023/03/19 13:13:34;;;;;;;4.68;1.67;;;18.60;74.40;;;;;;4906494;29;20036;-73
2023/03/19 13:16:29;;;;;;;2.67;1.23;;;18.00;76.00;;;;;;4906905;29;20045;-71
2023/03/19 13:19:19;;;;;;;2.85;1.23;;;17.60;77.30;;;;;;4890694;29;20068;-72
2023/03/19 13:21:48;;;;;;;2.33;1.00;;;17.20;80.40;;;;;;4906957;29;20048;-71
2023/03/19 13:24:30;;;;;;;4.25;1.30;;;16.80;87.20;;;;;;4906841;29;20017;-70
2023/03/19 13:27:00;;;;;;;5.20;1.60;;;15.80;95.30;;;;;;4906973;29;20322;-72
2023/03/19 13:29:28;;;;;;;3.22;1.40;;;14.90;97.20;;;;;;4906050;29;20349;-71
2023/03/19 13:32:19;;;;;;;3.40;1.52;;;14.90;99.80;;;;;;4906637;29;20040;-73
2023/03/19 13:34:46;;;;;;;3.20;1.40;;;15.10;97.40;;;;;;4906242;29;20032;-71
2023/03/19 13:37:13;;;;;;;3.20;1.40;;;15.30;97.60;;;;;;4906669;29;20028;-72
2023/03/19 13:39:41;;;;;;;3.07;1.30;;;16.10;95.80;;;;;;4920560;29;20056;-72
2023/03/19 13:42:09;;;;;;;4.53;1.20;;;16.90;96.00;;;;;;4906995;29;20037;-74
2023/03/19 13:45:21;;;;;;;2.78;1.20;;;17.90;93.40;;;;;;4906605;29;20063;-73
2023/03/19 13:47:48;;;;;;;2.83;1.27;;;18.50;92.10;;;;;;4890846;29;20214;-73
2023/03/19 13:50:26;;;;;;;3.85;1.20;;;18.50;91.10;;;;;;4906480;29;20025;-73
2023/03/19 13:53:20;;;;;;;3.22;1.20;;;18.50;91.50;;;;;;4906465;29;20379;-72
2023/03/19 13:55:52;;;;;;;2.83;1.25;;;18.50;91.40;;;;;;4919150;29;20039;-73
2023/03/19 14:01:30;;;;;;;4.30;1.63;;;18.20;91.60;;;;;;4906186;29;20363;-74
2023/03/19 14:04:18;;;;;;;3.30;1.15;;;17.80;91.50;;;;;;4919265;29;20047;-74
2023/03/19 14:06:55;;;;;;;7.85;2.03;;;17.50;91.30;;;;;;4857465;29;20068;-75
2023/03/19 14:09:34;;;;;;;5.03;1.48;;;17.20;91.40;;;;;;4866952;29;20057;-72
2023/03/19 14:12:15;;;;;;;3.13;1.27;;;17.10;93.60;;;;;;4867442;29;20064;-71
2023/03/19 14:14:45;;;;;;;3.40;1.30;;;17.10;93.10;;;;;;4868223;29;20101;-75
2023/03/19 14:17:24;;;;;;;3.03;1.20;;;17.90;94.30;;;;;;4867730;29;20447;-74
2023/03/19 14:19:51;;;;;;;4.13;1.33;;;18.90;92.80;;;;;;4867494;29;20041;-76
2023/03/19 14:22:37;;;;;;;3.67;1.42;;;19.40;91.80;;;;;;4869765;29;20371;-72
2023/03/19 14:25:17;;;;;;;2.75;1.30;;;19.80;88.50;;;;;;4867847;29;20055;-75
2023/03/19 14:27:48;;;;;;;3.05;1.40;;;20.30;90.40;;;;;;4869299;29;20034;-75
2023/03/19 14:30:32;;;;;;;3.58;0.95;;;20.40;87.70;;;;;;4870012;29;20045;-77
2023/03/19 14:33:03;;;;;;;2.28;0.93;;;20.70;86.80;;;;;;4863708;29;20030;-78
2023/03/19 14:35:35;;;;;;;3.33;1.23;;;21.40;88.60;;;;;;4865399;29;20045;-76
2023/03/19 14:38:10;;;;;;;3.22;1.30;;;21.30;83.20;;;;;;4870128;29;20041;-76
2023/03/19 14:40:46;;;;;;;4.10;1.40;;;21.00;84.50;;;;;;4868904;29;20303;-77
2023/03/19 14:43:45;;;;;;;2.83;1.20;;;20.50;84.90;;;;;;4882243;29;20107;-78
2023/03/19 14:46:48;;;;;;;3.50;1.48;;;20.10;86.30;;;;;;4918589;29;20048;-76
2023/03/19 14:49:39;;;;;;;3.13;1.20;;;19.40;84.80;;;;;;4911486;29;20036;-73
2023/03/19 14:52:15;;;;;;;2.88;1.33;;;19.00;88.90;;;;;;4904031;29;20303;-76
2023/03/19 14:54:49;;;;;;;3.00;1.65;;;18.60;87.70;;;;;;4908443;29;20052;-75
2023/03/19 14:57:17;;;;;;;2.45;1.23;;;18.10;89.40;;;;;;4924809;29;20259;-75
2023/03/19 14:59:44;;;;;;;2.78;1.60;;;17.80;90.40;;;;;;4907768;29;20041;-76
2023/03/19 15:02:41;;;;;;;3.15;1.95;;;17.90;90.80;;;;;;4923117;29;20274;-75
2023/03/19 15:05:16;;;;;;;3.85;2.00;;;17.90;91.40;;;;;;4908897;29;20048;-74
2023/03/19 15:07:45;;;;;;;4.32;1.67;;;17.90;91.20;;;;;;4918454;29;20082;-75
2023/03/19 15:10:23;;;;;;;5.53;2.03;;;17.80;92.60;;;;;;4908278;29;20040;-73
2023/03/19 15:13:04;;;;;;;4.20;1.60;;;17.80;91.50;;;;;;4909042;29;20318;-72
2023/03/19 15:15:37;;;;;;;2.88;1.20;;;17.70;91.00;;;;;;4908346;29;20048;-73
2023/03/19 15:18:12;;;;;;;3.53;1.48;;;17.40;91.10;;;;;;4922771;29;20099;-76
2023/03/19 15:20:47;;;;;;;3.10;1.00;;;17.20;91.20;;;;;;4908136;29;20070;-74
2023/03/19 15:23:18;;;;;;;2.38;1.02;;;17.10;90.40;;;;;;4908422;29;20096;-74
2023/03/19 15:25:49;;;;;;;2.05;0.95;;;17.00;90.50;;;;;;4908263;29;20047;-74
2023/03/19 15:28:16;;;;;;;1.92;0.77;;;16.90;89.70;;;;;;4889974;29;20041;-75
2023/03/19 15:30:42;;;;;;;2.78;1.13;;;17.00;90.10;;;;;;4907739;29;20041;-75
2023/03/19 15:33:31;;;;;;;2.80;1.05;;;16.90;90.40;;;;;;4908508;29;20032;-74
2023/03/19 15:36:03;;;;;;;2.70;1.20;;;16.80;90.20;;;;;;4902518;29;20032;-75
2023/03/19 15:38:34;;;;;;;3.15;1.40;;;16.80;90.00;;;;;;4904313;29;20051;-73
2023/03/19 15:41:03;;;;;;;3.42;1.40;;;16.70;90.20;;;;;;4898983;29;20036;-76
2023/03/19 15:43:29;;;;;;;4.75;1.15;;;16.60;90.60;;;;;;4907802;29;20301;-73
2023/03/19 15:45:56;;;;;;;3.92;1.40;;;16.50;90.40;;;;;;4922194;29;20187;-74
2023/03/19 15:48:36;;;;;;;3.33;1.60;;;16.50;90.60;;;;;;4906933;29;20260;-74
2023/03/19 15:51:05;;;;;;;3.78;1.50;;;16.40;90.50;;;;;;4904906;29;20028;-73
2023/03/19 15:53:33;;;;;;;2.75;1.20;;;16.30;90.50;;;;;;4906664;29;20036;-74
2023/03/19 15:56:01;;;;;;;3.28;1.23;;;16.20;91.00;;;;;;4904529;29;20041;-75
2023/03/19 15:58:36;;;;;;;2.88;1.40;;;16.10;91.30;;;;;;4906283;29;20043;-73
2023/03/19 16:01:05;;;;;;;2.90;1.30;;;15.90;91.50;;;;;;4907384;29;20052;-72
2023/03/19 16:03:38;;;;;;;3.78;1.42;;;15.80;92.00;;;;;;4906383;29;20390;-73
2023/03/19 16:06:14;;;;;;;3.80;1.52;;;15.70;92.10;;;;;;4922058;29;20044;-73
2023/03/19 16:08:54;;;;;;;3.78;1.30;;;15.60;92.50;;;;;;4907002;29;20156;-72
2023/03/19 16:11:34;;;;;;;3.75;1.75;;;15.30;92.60;;;;;;4907514;29;20080;-73
2023/03/19 16:14:26;;;;;;;4.05;1.40;;;15.10;94.40;;;;;;4916285;29;20033;-73
2023/03/19 16:17:02;;;;;;;4.05;1.40;;;14.90;95.10;;;;;;4897280;29;20083;-73
2023/03/19 16:19:35;;;;;;;4.55;1.35;;;14.80;96.90;;;;;;4918967;29;20286;-73
2023/03/19 16:22:09;;;;;;;4.55;1.40;;;14.50;97.40;;;;;;4907307;29;20318;-74
2023/03/19 16:24:54;;;;;;;3.45;1.50;;;14.10;99.20;;;;;;4906765;29;20327;-73
2023/03/19 16:27:40;;;;;;;3.70;1.30;;;13.90;99.90;;;;;;4907609;29;20040;-74
2023/03/19 16:30:21;;;;;;;3.00;1.60;;;13.60;99.90;;;;;;4905329;29;20047;-73
2023/03/19 16:32:58;;;;;;;4.82;1.80;;;13.40;99.90;;;;;;4906938;29;20040;-74
2023/03/19 16:35:26;;;;;;;4.80;1.77;;;13.40;99.90;;;;;;4907630;29;20047;-73
2023/03/19 16:38:16;;;;;;;4.85;1.83;;;13.20;99.90;;;;;;4907508;29;20060;-75
2023/03/19 16:40:47;;;;;;;4.82;1.90;;;13.10;99.90;;;;;;4901693;29;20040;-74
2023/03/19 16:43:19;;;;;;;5.30;2.13;;;13.00;99.90;;;;;;4906472;29;20047;-74
2023/03/19 16:45:50;;;;;;;4.95;2.00;;;12.80;99.90;;;;;;4906585;29;20219;-73
2023/03/19 16:48:15;;;;;;;5.18;1.90;;;12.70;99.90;;;;;;4907322;29;20041;-74
2023/03/19 16:50:46;;;;;;;5.07;2.20;;;12.60;99.90;;;;;;4906390;29;20063;-74
2023/03/19 16:53:30;;;;;;;4.65;2.30;;;12.60;99.90;;;;;;4907212;29;20028;-73
2023/03/19 16:55:58;;;;;;;4.97;2.25;;;12.70;99.90;;;;;;4907169;29;20353;-72
2023/03/19 16:58:34;;;;;;;4.60;1.90;;;12.70;99.90;;;;;;4906916;29;20047;-73
2023/03/19 17:01:01;;;;;;;4.70;2.15;;;12.70;99.90;;;;;;4906465;29;20036;-72
2023/03/19 17:03:29;;;;;;;3.42;2.00;;;12.80;99.90;;;;;;4905638;29;20048;-72
2023/03/19 17:05:55;;;;;;;5.55;2.08;;;12.90;99.90;;;;;;4905516;29;20035;-71
2023/03/19 17:08:22;;;;;;;4.30;2.58;;;12.90;99.90;;;;;;4906029;29;20077;-74
2023/03/19 17:10:52;;;;;;;3.85;2.25;;;12.70;99.90;;;;;;4905181;29;20240;-73
2023/03/19 17:13:22;;;;;;;6.25;2.97;;;12.60;99.90;;;;;;4906999;29;20069;-73
2023/03/19 17:15:49;;;;;;;4.50;2.53;;;12.50;99.90;;;;;;4906181;29;20367;-73
2023/03/19 17:18:16;;;;;;;4.80;2.42;;;12.40;99.90;;;;;;4920623;29;20278;-72
2023/03/19 17:20:54;;;;;;;4.70;2.30;;;12.30;99.90;;;;;;4907165;29;20064;-75
2023/03/19 17:23:23;;;;;;;5.80;2.72;;;12.30;99.90;;;;;;4907009;29;20036;-76
2023/03/19 17:25:50;;;;;;;5.40;2.95;;;12.20;99.90;;;;;;4920783;29;20067;-74
2023/03/19 17:28:16;;;;;;;5.95;3.50;;;12.10;99.90;;;;;;4906931;29;20036;-75
2023/03/19 17:30:42;;;;;;;6.50;3.40;;;12.10;99.90;;;;;;4921047;29;20048;-77
2023/03/19 17:33:29;;;;;;;6.00;2.63;;;12.20;99.90;;;;;;4921387;29;20025;-77
2023/03/19 17:35:56;;;;;;;5.55;3.05;;;12.30;99.90;;;;;;4921600;29;20108;-76
2023/03/19 17:38:28;;;;;;;5.70;2.53;;;12.30;99.90;;;;;;4908073;29;20024;-78
2023/03/19 17:40:54;;;;;;;5.32;2.60;;;12.20;99.90;;;;;;4925964;29;20080;-76
2023/03/19 17:43:20;;;;;;;8.25;4.00;;;12.30;99.90;;;;;;4906627;29;20079;-75
2023/03/19 17:45:49;;;;;;;7.25;3.67;;;12.20;99.90;;;;;;4906030;29;20033;-75
2023/03/19 17:48:20;;;;;;;7.55;3.17;;;12.20;99.90;;;;;;4906489;29;20039;-74
2023/03/19 17:50:46;;;;;;;5.93;3.13;;;12.00;99.90;;;;;;4905666;29;20104;-73
2023/03/19 17:53:13;;;;;;;5.03;2.88;;;12.10;99.90;;;;;;4906309;29;20037;-73
2023/03/19 17:55:39;;;;;;;4.22;1.70;;;12.10;99.90;;;;;;4907785;29;20267;-73
2023/03/19 17:58:13;;;;;;;3.13;1.83;;;12.00;99.90;;;;;;4910257;29;20043;-73
2023/03/19 18:00:39;;;;;;;5.05;2.10;;;11.90;99.90;;;;;;4909478;29;20041;-74
2023/03/19 18:03:05;;;;;;;4.43;1.60;;;11.80;99.90;;;;;;4909718;29;20339;-73
2023/03/19 18:05:30;;;;;;;3.13;1.60;;;11.70;99.90;;;;;;4909972;29;20039;-76
2023/03/19 18:07:56;;;;;;;4.00;1.70;;;11.80;99.90;;;;;;4909902;29;20028;-73
2023/03/19 18:10:26;;;;;;;3.83;2.10;;;11.80;99.90;;;;;;4924645;29;20242;-74
2023/03/19 18:12:53;;;;;;;4.72;2.10;;;11.80;99.90;;;;;;4909462;29;20067;-73
2023/03/19 18:15:19;;;;;;;4.97;2.00;;;11.80;99.90;;;;;;4910030;29;20342;-74
2023/03/19 18:17:49;;;;;;;4.70;1.95;;;11.80;99.90;;;;;;4909292;29;20037;-74
2023/03/19 18:20:17;;;;;;;3.40;1.77;;;11.80;99.90;;;;;;4912060;29;20036;-75
2023/03/19 18:22:44;;;;;;;5.15;1.80;;;11.80;99.90;;;;;;4909824;29;20088;-75